createdAt,value
2023-10-11T00:03:25.789Z,6.38
2023-10-11T00:05:54.587Z,6.00
2023-10-11T00:08:28.765Z,7.43
2023-10-11T00:10:59.464Z,8.77
2023-10-11T00:13:34.473Z,7.22
2023-10-11T00:16:08.921Z,7.25
2023-10-11T00:18:39.160Z,6.10
2023-10-11T00:21:17.529Z,6.95
2023-10-11T00:23:49.938Z,8.13
2023-10-11T00:26:19.193Z,8.07
2023-10-11T00:28:57.761Z,8.07
2023-10-11T00:31:25.119Z,7.30
2023-10-11T00:33:54.829Z,5.55
2023-10-11T00:36:25.830Z,7.13
2023-10-11T00:38:53.462Z,7.07
2023-10-11T00:41:22.386Z,7.07
2023-10-11T00:43:54.046Z,6.07
2023-10-11T00:46:45.851Z,5.68
2023-10-11T00:49:16.304Z,7.00
2023-10-11T00:51:48.441Z,6.13
2023-10-11T00:54:17.769Z,6.68
2023-10-11T00:56:50.001Z,6.75
2023-10-11T00:59:22.450Z,7.70
2023-10-11T01:01:53.269Z,8.85
2023-10-11T01:04:20.818Z,4.78
2023-10-11T01:06:50.052Z,5.80
2023-10-11T01:09:27.654Z,5.82
2023-10-11T01:11:55.116Z,6.88
2023-10-11T01:14:25.402Z,5.93
2023-10-11T01:16:53.644Z,7.28
2023-10-11T01:19:22.011Z,4.80
2023-10-11T01:21:53.667Z,4.90
2023-10-11T01:24:21.389Z,6.30
2023-10-11T01:26:50.766Z,6.88
2023-10-11T01:29:18.964Z,7.13
2023-10-11T01:31:46.837Z,4.88
2023-10-11T01:34:16.690Z,6.70
2023-10-11T01:36:47.625Z,7.95
2023-10-11T01:39:15.595Z,6.03
2023-10-11T01:41:44.998Z,6.85
2023-10-11T01:44:14.114Z,6.28
2023-10-11T01:46:43.168Z,5.88
2023-10-11T01:49:12.050Z,5.53
2023-10-11T01:54:08.437Z,7.53
2023-10-11T01:56:35.719Z,5.82
2023-10-11T01:59:03.462Z,5.80
2023-10-11T02:01:40.920Z,5.63
2023-10-11T02:04:20.310Z,7.20
2023-10-11T02:06:56.021Z,6.28
2023-10-11T02:09:24.370Z,6.95
2023-10-11T02:11:56.977Z,5.55
2023-10-11T02:14:30.572Z,5.55
2023-10-11T02:17:00.843Z,4.68
2023-10-11T02:19:30.496Z,9.32
2023-10-11T02:21:57.531Z,6.15
2023-10-11T02:24:28.130Z,5.35
2023-10-11T02:26:58.021Z,5.40
2023-10-11T02:29:28.215Z,4.47
2023-10-11T02:31:56.933Z,5.80
2023-10-11T02:34:25.426Z,6.60
2023-10-11T02:37:04.203Z,6.47
2023-10-11T02:39:34.873Z,7.88
2023-10-11T02:42:07.073Z,6.97
2023-10-11T02:44:41.802Z,8.68
2023-10-11T02:47:11.372Z,7.90
2023-10-11T02:52:09.686Z,5.20
2023-10-11T02:54:42.367Z,6.30
2023-10-11T02:57:10.826Z,6.63
2023-10-11T02:59:38.666Z,8.45
2023-10-11T03:02:08.390Z,8.00
2023-10-11T03:04:41.466Z,9.30
2023-10-11T03:07:25.155Z,7.13
2023-10-11T03:09:56.482Z,8.07
2023-10-11T03:12:36.268Z,9.10
2023-10-11T03:15:14.134Z,10.90
2023-10-11T03:17:45.792Z,10.40
2023-10-11T03:20:26.764Z,11.50
2023-10-11T03:22:54.093Z,12.27
2023-10-11T03:25:21.256Z,10.48
2023-10-11T03:27:50.843Z,9.50
2023-10-11T03:30:20.490Z,9.13
2023-10-11T03:32:48.468Z,9.93
2023-10-11T03:35:17.836Z,10.90
2023-10-11T03:38:02.865Z,17.55
2023-10-11T03:40:36.862Z,10.80
2023-10-11T03:43:13.389Z,11.60
2023-10-11T03:45:50.920Z,8.95
2023-10-11T03:48:22.540Z,10.80
2023-10-11T03:50:53.378Z,10.35
2023-10-11T03:53:21.072Z,12.55
2023-10-11T03:55:49.218Z,12.25
2023-10-11T03:58:47.498Z,15.80
2023-10-11T04:01:24.929Z,9.73
2023-10-11T04:03:53.381Z,12.25
2023-10-11T04:06:21.536Z,12.95
2023-10-11T04:08:58.229Z,10.98
2023-10-11T04:11:57.033Z,10.68
2023-10-11T04:14:41.578Z,12.63
2023-10-11T04:17:22.732Z,12.75
2023-10-11T04:19:51.069Z,14.13
2023-10-11T04:22:32.588Z,11.75
2023-10-11T04:25:07.951Z,12.57
2023-10-11T04:27:35.749Z,13.70
2023-10-11T04:30:18.949Z,13.50
2023-10-11T04:32:49.295Z,12.30
2023-10-11T04:35:22.327Z,13.70
2023-10-11T04:37:56.124Z,13.20
2023-10-11T04:40:44.430Z,15.73
2023-10-11T04:43:31.922Z,16.80
2023-10-11T04:46:01.748Z,9.65
2023-10-11T04:48:35.390Z,11.52
2023-10-11T04:51:27.712Z,9.77
2023-10-11T04:53:54.974Z,10.18
2023-10-11T04:56:44.758Z,8.50
2023-10-11T04:59:26.945Z,7.38
2023-10-11T05:01:54.575Z,11.05
2023-10-11T05:04:34.751Z,12.15
2023-10-11T05:07:09.287Z,6.97
2023-10-11T05:09:41.009Z,7.65
2023-10-11T05:12:21.139Z,7.03
2023-10-11T05:14:48.510Z,11.63
2023-10-11T05:17:16.343Z,8.25
2023-10-11T05:20:05.344Z,21.50
2023-10-11T05:22:41.865Z,12.65
2023-10-11T05:25:18.365Z,13.93
2023-10-11T05:27:51.024Z,7.70
2023-10-11T05:30:29.981Z,15.35
2023-10-11T05:33:03.603Z,8.93
2023-10-11T05:36:05.147Z,9.82
2023-10-11T05:38:51.058Z,6.68
2023-10-11T05:41:36.523Z,8.55
2023-10-11T05:44:22.204Z,8.20
2023-10-11T05:47:07.858Z,8.73
2023-10-11T05:49:53.724Z,6.88
2023-10-11T05:52:20.985Z,8.15
2023-10-11T05:54:50.997Z,8.77
2023-10-11T05:57:20.446Z,7.93
2023-10-11T05:59:49.490Z,9.52
2023-10-11T06:02:20.681Z,9.73
2023-10-11T06:04:48.500Z,8.80
2023-10-11T06:07:17.678Z,9.55
2023-10-11T06:09:47.199Z,8.00
2023-10-11T06:12:24.577Z,12.18
2023-10-11T06:14:53.829Z,9.10
2023-10-11T06:17:34.892Z,8.20
2023-10-11T06:20:20.490Z,8.43
2023-10-11T06:22:47.732Z,11.85
2023-10-11T06:25:18.375Z,9.38
2023-10-11T06:28:08.438Z,10.32
2023-10-11T06:30:36.606Z,8.35
2023-10-11T06:33:08.012Z,6.47
2023-10-11T06:35:45.459Z,7.70
2023-10-11T06:38:13.938Z,18.92
2023-10-11T06:40:47.798Z,8.10
2023-10-11T06:43:16.912Z,9.02
2023-10-11T06:45:44.175Z,9.55
2023-10-11T06:48:14.993Z,9.98
2023-10-11T06:50:42.294Z,10.77
2023-10-11T06:53:11.000Z,7.05
2023-10-11T06:55:41.064Z,10.27
2023-10-11T06:58:17.550Z,10.00
2023-10-11T07:00:47.952Z,7.95
2023-10-11T07:03:22.938Z,11.20
2023-10-11T07:05:58.305Z,9.35
2023-10-11T07:08:36.842Z,7.65
2023-10-11T07:11:08.194Z,14.43
2023-10-11T07:13:56.292Z,6.88
2023-10-11T07:16:29.081Z,8.45
2023-10-11T07:18:58.675Z,10.75
2023-10-11T07:21:28.429Z,7.03
2023-10-11T07:26:25.238Z,6.13
2023-10-11T07:28:54.229Z,5.45
2023-10-11T07:31:29.085Z,3.78
2023-10-11T07:33:59.259Z,4.32
2023-10-11T07:36:29.712Z,3.50
2023-10-11T07:38:57.956Z,4.43
2023-10-11T07:41:30.487Z,2.95
2023-10-11T07:43:58.697Z,3.58
2023-10-11T07:46:26.344Z,4.65
2023-10-11T07:49:06.122Z,3.70
2023-10-11T07:51:37.402Z,4.88
2023-10-11T07:54:21.114Z,5.03
2023-10-11T07:56:59.570Z,6.90
2023-10-11T07:59:31.003Z,6.50
2023-10-11T08:02:01.065Z,7.40
2023-10-11T08:04:31.167Z,5.97
2023-10-11T08:07:08.219Z,9.98
2023-10-11T08:09:46.823Z,5.70
2023-10-11T08:12:20.785Z,4.05
2023-10-11T08:14:49.004Z,7.50
2023-10-11T08:17:18.058Z,3.78
2023-10-11T08:19:46.428Z,3.78
2023-10-11T08:22:16.968Z,5.93
2023-10-11T08:24:51.315Z,4.97
2023-10-11T08:27:30.758Z,5.72
2023-10-11T08:30:20.255Z,2.97
2023-10-11T08:32:49.790Z,4.43
2023-10-11T08:43:05.099Z,4.15
2023-10-11T08:45:50.517Z,4.65
2023-10-11T08:48:19.198Z,4.20
2023-10-11T08:50:54.901Z,4.95
2023-10-11T08:53:23.098Z,5.25
2023-10-11T09:00:56.077Z,3.60
2023-10-11T09:03:41.355Z,6.38
2023-10-11T09:24:45.910Z,7.93
2023-10-11T09:27:23.868Z,4.35
2023-10-11T09:29:52.933Z,3.95
2023-10-11T09:32:29.000Z,4.25
2023-10-11T09:34:57.984Z,3.00
2023-10-11T09:37:28.874Z,2.80
2023-10-11T11:45:58.666Z,3.70
2023-10-11T11:48:26.038Z,4.45
2023-10-11T11:50:57.933Z,5.30
2023-10-11T11:53:26.083Z,3.95
2023-10-11T11:55:53.293Z,4.85
2023-10-11T11:58:20.734Z,3.65
2023-10-11T12:01:02.165Z,7.35
2023-10-11T12:03:29.467Z,5.35
2023-10-11T12:05:56.786Z,3.45
2023-10-11T12:08:24.841Z,2.58
2023-10-11T12:10:52.166Z,5.90
2023-10-11T12:25:55.764Z,4.70
